Time;durP1;ratioP1;P1;durP2;ratioP2;P2;SDS_P1;SDS_P2;PMS_P1;PMS_P2;Temp;Humidity;BMP_temperature;BMP_pressure;BME280_temperature;BME280_humidity;BME280_pressure;Samples;Min_cycle;Max_cycle;Signal;HPM_P1;HPM_P2
2021/05/03 00:02:22;;;;;;;4.57;2.85;;;4.40;99.40;;;;;;5025334;28;20038;-65
2021/05/03 00:04:48;;;;;;;5.57;3.13;;;4.40;99.40;;;;;;5025554;28;20038;-65
2021/05/03 00:07:13;;;;;;;5.35;3.40;;;4.40;99.50;;;;;;5022977;28;20061;-65
2021/05/03 00:09:39;;;;;;;4.68;2.90;;;4.40;99.60;;;;;;5026956;28;20037;-65
2021/05/03 00:12:06;;;;;;;4.43;2.90;;;4.40;99.70;;;;;;5028294;28;20046;-65
2021/05/03 00:14:32;;;;;;;5.50;2.80;;;4.40;99.80;;;;;;5028173;28;20115;-65
2021/05/03 00:16:58;;;;;;;4.90;3.20;;;4.30;99.90;;;;;;5026605;28;20045;-65
2021/05/03 00:19:23;;;;;;;3.92;2.40;;;4.30;99.90;;;;;;5026948;28;20034;-65
2021/05/03 00:21:49;;;;;;;3.72;2.70;;;4.30;99.90;;;;;;5027427;28;20618;-65
2021/05/03 00:24:15;;;;;;;3.63;2.75;;;4.20;99.80;;;;;;5025308;28;20966;-65
2021/05/03 00:26:40;;;;;;;7.82;3.28;;;4.30;99.80;;;;;;5026586;28;20041;-65
2021/05/03 00:29:07;;;;;;;4.13;3.60;;;4.20;99.90;;;;;;5027084;28;20403;-65
2021/05/03 00:31:35;;;;;;;4.38;2.90;;;4.20;99.90;;;;;;5027194;28;20038;-65
2021/05/03 00:34:10;;;;;;;5.70;2.88;;;4.20;99.90;;;;;;5026384;28;20095;-65
2021/05/03 00:36:35;;;;;;;12.70;3.22;;;4.10;99.90;;;;;;5026623;28;20033;-65
2021/05/03 00:39:01;;;;;;;4.35;3.05;;;4.10;99.90;;;;;;5027141;28;20041;-65
2021/05/03 00:41:27;;;;;;;6.43;3.10;;;4.10;99.90;;;;;;5024234;28;20069;-65
2021/05/03 00:43:53;;;;;;;2.70;2.47;;;4.10;99.90;;;;;;5026984;28;20060;-65
2021/05/03 00:46:20;;;;;;;5.35;3.15;;;4.10;99.90;;;;;;5027439;28;20488;-65
2021/05/03 00:48:47;;;;;;;4.03;2.92;;;4.10;99.90;;;;;;5027447;28;20407;-65
2021/05/03 00:51:13;;;;;;;6.53;2.60;;;4.10;99.90;;;;;;5028181;28;20407;-65
2021/05/03 00:53:39;;;;;;;3.25;2.85;;;4.10;99.90;;;;;;5027633;28;20081;-65
2021/05/03 00:56:05;;;;;;;3.17;2.90;;;4.10;99.90;;;;;;5027486;28;20068;-65
2021/05/03 00:58:31;;;;;;;3.20;2.60;;;4.20;99.90;;;;;;5026759;28;20135;-65
2021/05/03 01:00:57;;;;;;;5.45;3.20;;;4.20;99.90;;;;;;5027259;28;20760;-65
2021/05/03 01:03:23;;;;;;;6.40;3.22;;;4.20;99.90;;;;;;5029276;28;20738;-65
2021/05/03 01:05:49;;;;;;;7.05;3.60;;;4.30;99.90;;;;;;5030040;28;20065;-65
2021/05/03 01:08:14;;;;;;;6.22;2.97;;;4.30;99.90;;;;;;5031411;28;20043;-65
2021/05/03 01:10:41;;;;;;;4.57;2.80;;;4.30;99.90;;;;;;5030695;28;20773;-66
2021/05/03 01:13:06;;;;;;;3.70;3.40;;;4.40;99.90;;;;;;5032064;28;20052;-65
2021/05/03 01:15:32;;;;;;;8.10;3.83;;;4.40;99.90;;;;;;5031556;28;20132;-65
2021/05/03 01:18:00;;;;;;;5.43;3.25;;;4.40;99.90;;;;;;5031635;28;20411;-65
2021/05/03 01:20:29;;;;;;;4.18;3.50;;;4.40;99.90;;;;;;5029620;28;20149;-65
2021/05/03 01:22:57;;;;;;;4.30;2.97;;;4.50;99.90;;;;;;5028318;28;20443;-65
2021/05/03 01:25:27;;;;;;;5.70;3.70;;;4.50;99.90;;;;;;5031224;28;20063;-65
2021/05/03 01:27:53;;;;;;;3.38;3.08;;;4.50;99.90;;;;;;5030929;28;20041;-65
2021/05/03 01:30:19;;;;;;;4.38;3.45;;;4.60;99.90;;;;;;5029705;28;20041;-65
2021/05/03 01:32:45;;;;;;;4.30;2.90;;;4.60;99.90;;;;;;5030552;28;20049;-65
2021/05/03 01:35:15;;;;;;;5.45;3.78;;;4.60;99.90;;;;;;5027862;28;20037;-65
2021/05/03 01:37:40;;;;;;;4.55;3.10;;;4.60;99.90;;;;;;5028525;28;20041;-65
2021/05/03 01:40:08;;;;;;;4.00;3.08;;;4.70;99.90;;;;;;5029213;28;20741;-65
2021/05/03 01:42:35;;;;;;;5.85;3.55;;;4.60;99.90;;;;;;5030076;28;20049;-65
2021/05/03 01:45:02;;;;;;;3.67;2.83;;;4.70;99.90;;;;;;5029160;28;20041;-65
2021/05/03 01:47:28;;;;;;;5.90;3.55;;;4.70;99.90;;;;;;5027390;28;20040;-65
2021/05/03 01:49:54;;;;;;;3.30;2.83;;;4.80;99.90;;;;;;5026201;28;20144;-65
2021/05/03 01:52:21;;;;;;;3.17;2.80;;;4.90;99.90;;;;;;5026861;28;20112;-65
2021/05/03 01:54:47;;;;;;;5.45;3.30;;;4.90;99.90;;;;;;5027714;28;20103;-65
2021/05/03 01:57:17;;;;;;;3.17;2.70;;;4.90;99.90;;;;;;5023618;28;20103;-65
2021/05/03 01:59:43;;;;;;;5.28;2.95;;;5.00;99.90;;;;;;5028850;28;20041;-65
2021/05/03 02:02:09;;;;;;;3.83;2.67;;;5.10;99.90;;;;;;5029860;28;20057;-65
2021/05/03 02:04:35;;;;;;;3.40;2.65;;;5.10;99.90;;;;;;5029642;28;20082;-65
2021/05/03 02:07:01;;;;;;;4.70;2.75;;;5.20;99.90;;;;;;5028889;28;20484;-65
2021/05/03 02:09:27;;;;;;;3.92;2.28;;;5.20;99.90;;;;;;5029390;28;20044;-65
2021/05/03 02:11:52;;;;;;;2.03;1.63;;;5.30;99.90;;;;;;5025300;28;20044;-65
2021/05/03 02:14:18;;;;;;;6.15;2.17;;;5.40;99.90;;;;;;5027791;28;20124;-65
2021/05/03 02:16:44;;;;;;;3.15;2.05;;;5.40;99.90;;;;;;5029107;28;20083;-65
2021/05/03 02:19:10;;;;;;;2.75;1.90;;;5.50;99.90;;;;;;5026360;28;20120;-65
2021/05/03 02:21:35;;;;;;;3.47;2.17;;;5.50;99.90;;;;;;5029477;28;20034;-65
2021/05/03 02:24:01;;;;;;;5.10;1.45;;;5.50;99.90;;;;;;5029359;28;20038;-65
2021/05/03 02:26:27;;;;;;;3.50;2.35;;;5.60;99.90;;;;;;5028119;28;20037;-65
2021/05/03 02:28:53;;;;;;;9.45;2.33;;;5.60;99.90;;;;;;5029742;28;20570;-65
2021/05/03 02:31:19;;;;;;;3.17;2.33;;;5.60;99.90;;;;;;5030079;28;20030;-65
2021/05/03 02:33:45;;;;;;;2.80;2.60;;;5.70;99.90;;;;;;5028692;28;21523;-65
2021/05/03 02:36:11;;;;;;;2.95;2.60;;;5.70;99.90;;;;;;5028253;28;20037;-65
2021/05/03 02:38:36;;;;;;;2.60;2.33;;;5.70;99.90;;;;;;5028277;28;20983;-65
2021/05/03 02:41:02;;;;;;;3.88;2.90;;;5.70;99.90;;;;;;5029176;28;20039;-65
2021/05/03 02:43:28;;;;;;;3.10;2.80;;;5.80;99.90;;;;;;5025235;28;20046;-65
2021/05/03 02:45:54;;;;;;;3.80;2.22;;;5.80;99.90;;;;;;5028895;28;20424;-65
2021/05/03 02:48:19;;;;;;;4.88;2.92;;;5.80;99.90;;;;;;5028504;28;20045;-65
2021/05/03 02:50:45;;;;;;;2.83;2.53;;;5.90;99.90;;;;;;5029177;28;20454;-65
2021/05/03 02:53:11;;;;;;;4.57;2.65;;;5.90;99.90;;;;;;5028711;28;20458;-65
2021/05/03 02:55:36;;;;;;;2.70;2.45;;;5.90;99.90;;;;;;5027181;28;20040;-65
2021/05/03 02:58:02;;;;;;;4.80;2.85;;;5.90;99.90;;;;;;5026919;28;20064;-65
2021/05/03 03:00:34;;;;;;;4.95;2.90;;;5.90;99.90;;;;;;5029138;28;20033;-65
2021/05/03 03:03:00;;;;;;;4.20;2.22;;;6.00;99.90;;;;;;5027115;28;20072;-65
2021/05/03 03:05:26;;;;;;;3.08;2.45;;;5.90;99.90;;;;;;5024438;28;20037;-65
2021/05/03 03:07:52;;;;;;;3.75;2.60;;;5.90;99.90;;;;;;5026861;28;21028;-65
2021/05/03 03:10:19;;;;;;;2.60;2.40;;;6.00;99.90;;;;;;5028107;28;20083;-65
2021/05/03 03:12:46;;;;;;;4.82;2.28;;;6.20;99.90;;;;;;5028855;28;20041;-66
2021/05/03 03:15:17;;;;;;;3.83;2.45;;;6.10;99.90;;;;;;5026984;28;20045;-66
2021/05/03 03:17:47;;;;;;;3.05;2.65;;;6.00;99.90;;;;;;5028389;28;20041;-66
2021/05/03 03:20:14;;;;;;;3.85;2.97;;;6.00;99.90;;;;;;5026082;28;20041;-66
2021/05/03 03:22:47;;;;;;;4.30;2.83;;;5.90;99.90;;;;;;5028770;28;20095;-66
2021/05/03 03:25:13;;;;;;;3.60;2.85;;;5.80;99.90;;;;;;5027235;28;20033;-66
2021/05/03 03:27:39;;;;;;;4.78;3.22;;;5.80;99.90;;;;;;5026221;28;20068;-66
2021/05/03 03:30:07;;;;;;;7.38;3.53;;;5.80;99.90;;;;;;5027983;28;20045;-66
2021/05/03 03:32:33;;;;;;;4.45;3.13;;;5.70;99.90;;;;;;5027692;28;20052;-66
2021/05/03 03:34:58;;;;;;;4.13;3.40;;;5.70;99.90;;;;;;5027363;28;20476;-66
2021/05/03 03:37:24;;;;;;;4.65;4.22;;;5.70;99.90;;;;;;5027584;28;20041;-66
2021/05/03 03:39:50;;;;;;;7.43;3.40;;;5.70;99.90;;;;;;5027728;28;20041;-66
2021/05/03 03:42:16;;;;;;;6.18;4.07;;;5.70;99.90;;;;;;5025894;28;20408;-66
2021/05/03 03:44:41;;;;;;;6.10;4.82;;;5.80;99.90;;;;;;5026795;28;20038;-66
2021/05/03 03:47:07;;;;;;;8.60;5.20;;;6.00;99.90;;;;;;5025855;28;20061;-66
2021/05/03 03:49:33;;;;;;;8.05;5.68;;;6.00;99.90;;;;;;5027323;28;20061;-66
2021/05/03 03:51:59;;;;;;;6.30;5.35;;;5.80;99.90;;;;;;5027813;28;20039;-66
2021/05/03 03:54:24;;;;;;;8.95;6.55;;;5.90;99.90;;;;;;5028245;28;20042;-66
2021/05/03 03:56:50;;;;;;;8.07;6.00;;;5.80;99.90;;;;;;5024449;28;20033;-66
2021/05/03 03:59:16;;;;;;;8.60;6.80;;;5.80;99.90;;;;;;5027232;28;20099;-66
2021/05/03 04:01:44;;;;;;;9.07;6.82;;;5.80;99.90;;;;;;5024047;28;20042;-66
2021/05/03 04:04:21;;;;;;;8.25;7.07;;;5.80;99.90;;;;;;5027314;28;20037;-67
2021/05/03 04:07:02;;;;;;;11.40;7.72;;;5.70;99.90;;;;;;5023335;28;20110;-66
2021/05/03 04:25:14;;;;;;;11.18;8.30;;;5.80;99.90;;;;;;5026225;28;20113;-67
2021/05/03 04:27:40;;;;;;;9.57;8.63;;;5.80;99.90;;;;;;5026756;28;20043;-67
2021/05/03 04:30:08;;;;;;;11.65;8.07;;;5.80;99.90;;;;;;5028583;28;20030;-66
2021/05/03 04:32:34;;;;;;;11.80;8.70;;;5.80;99.90;;;;;;5026919;28;20040;-66
2021/05/03 04:35:00;;;;;;;10.52;8.98;;;5.80;99.90;;;;;;5024867;28;20029;-66
2021/05/03 04:37:27;;;;;;;11.02;9.63;;;5.80;99.90;;;;;;5025002;28;20046;-66
2021/05/03 04:39:52;;;;;;;12.82;9.95;;;5.90;99.90;;;;;;5025299;28;20515;-66
2021/05/03 04:42:18;;;;;;;12.75;9.93;;;6.10;99.90;;;;;;5027080;28;20483;-67
2021/05/03 04:44:44;;;;;;;11.73;10.10;;;6.10;99.90;;;;;;5025639;28;20568;-66
2021/05/03 04:47:10;;;;;;;11.18;10.02;;;6.10;99.90;;;;;;5025224;28;20041;-67
2021/05/03 04:49:36;;;;;;;10.95;9.77;;;6.00;99.90;;;;;;5026309;28;20036;-66
2021/05/03 04:52:02;;;;;;;13.77;10.70;;;5.90;99.90;;;;;;5025962;28;20067;-67
2021/05/03 04:54:27;;;;;;;12.02;10.82;;;5.90;99.90;;;;;;5026946;28;20079;-67
2021/05/03 04:56:53;;;;;;;10.70;9.68;;;5.80;99.90;;;;;;5023482;28;20491;-67
2021/05/03 04:59:19;;;;;;;12.73;10.20;;;5.90;99.90;;;;;;5027231;28;20499;-66
2021/05/03 05:01:44;;;;;;;16.05;10.23;;;6.00;99.90;;;;;;5022876;28;20987;-66
2021/05/03 05:04:10;;;;;;;13.68;10.25;;;6.00;99.90;;;;;;5025183;28;20041;-67
2021/05/03 05:06:36;;;;;;;11.77;10.50;;;6.00;99.90;;;;;;5023136;28;20126;-66
2021/05/03 05:09:04;;;;;;;11.15;10.10;;;6.00;99.90;;;;;;5026219;28;20045;-67
2021/05/03 05:11:34;;;;;;;13.15;9.65;;;6.00;99.90;;;;;;5020612;28;20041;-67
2021/05/03 05:14:00;;;;;;;13.52;10.27;;;6.10;99.90;;;;;;5024513;28;20050;-67
2021/05/03 05:16:26;;;;;;;13.40;10.07;;;6.20;99.90;;;;;;5025094;28;20048;-67
2021/05/03 05:18:52;;;;;;;12.75;10.90;;;6.10;99.90;;;;;;5025256;28;20124;-66
2021/05/03 05:21:18;;;;;;;10.65;9.55;;;6.10;99.90;;;;;;5026083;28;20042;-67
2021/05/03 05:23:44;;;;;;;13.25;10.02;;;6.20;99.90;;;;;;5022355;28;20045;-67
2021/05/03 05:26:10;;;;;;;10.38;9.27;;;6.20;99.90;;;;;;5023036;28;20049;-67
2021/05/03 05:28:36;;;;;;;13.57;8.90;;;6.20;99.90;;;;;;5023898;28;20444;-67
2021/05/03 05:31:03;;;;;;;12.85;9.13;;;6.20;99.90;;;;;;5024512;28;20038;-66
2021/05/03 05:33:28;;;;;;;13.10;10.25;;;6.20;99.90;;;;;;5022806;28;20141;-67
2021/05/03 05:35:55;;;;;;;13.05;9.00;;;6.20;99.90;;;;;;5024277;28;20500;-67
2021/05/03 05:38:21;;;;;;;10.13;8.80;;;6.20;99.90;;;;;;5026549;28;20104;-67
2021/05/03 05:40:46;;;;;;;11.77;9.30;;;6.20;99.90;;;;;;5026913;28;20227;-67
2021/05/03 05:43:13;;;;;;;12.07;10.02;;;6.30;99.90;;;;;;5026513;28;20041;-67
2021/05/03 05:45:39;;;;;;;11.90;9.73;;;6.30;99.90;;;;;;5025974;28;20503;-66
2021/05/03 05:48:05;;;;;;;13.10;10.25;;;6.30;99.90;;;;;;5029929;28;20069;-66
2021/05/03 05:50:31;;;;;;;11.35;10.15;;;6.40;99.90;;;;;;5030134;28;20112;-66
2021/05/03 05:52:56;;;;;;;13.52;10.50;;;6.40;99.90;;;;;;5028993;28;20048;-67
2021/05/03 05:55:23;;;;;;;12.63;11.10;;;6.40;99.90;;;;;;5031886;28;20045;-67
2021/05/03 05:57:48;;;;;;;13.52;11.68;;;6.50;99.90;;;;;;5031216;28;20033;-67
2021/05/03 06:00:15;;;;;;;12.75;11.20;;;6.50;99.90;;;;;;5026343;28;20053;-67
2021/05/03 06:02:40;;;;;;;13.15;11.70;;;6.50;99.90;;;;;;5029832;28;20048;-67
2021/05/03 06:05:07;;;;;;;14.05;11.82;;;6.60;99.90;;;;;;5029806;28;20045;-68
2021/05/03 06:07:33;;;;;;;16.55;13.20;;;6.70;99.90;;;;;;5023629;28;20103;-68
2021/05/03 06:09:59;;;;;;;13.15;11.80;;;6.70;99.90;;;;;;5026031;28;20042;-68
2021/05/03 06:12:25;;;;;;;14.27;12.65;;;6.80;99.90;;;;;;5027811;28;20041;-67
2021/05/03 06:14:52;;;;;;;13.15;11.82;;;6.80;99.90;;;;;;5023053;28;20038;-68
2021/05/03 06:17:19;;;;;;;17.58;12.95;;;6.80;99.90;;;;;;5023013;28;20049;-67
2021/05/03 06:19:45;;;;;;;14.32;12.73;;;6.80;99.90;;;;;;5022347;28;20773;-68
2021/05/03 06:22:12;;;;;;;15.18;13.30;;;6.80;99.90;;;;;;5020478;28;20045;-67
2021/05/03 06:24:39;;;;;;;17.30;13.52;;;6.90;99.90;;;;;;5023208;28;20073;-68
2021/05/03 06:27:05;;;;;;;15.60;14.00;;;6.80;99.90;;;;;;5024486;28;20155;-67
2021/05/03 06:29:30;;;;;;;15.18;13.50;;;6.90;99.90;;;;;;5020399;28;20064;-67
2021/05/03 06:31:59;;;;;;;17.00;14.82;;;7.00;99.90;;;;;;5019850;28;20104;-67
2021/05/03 06:34:31;;;;;;;17.20;15.50;;;7.00;99.90;;;;;;5020531;28;20200;-68
2021/05/03 06:36:58;;;;;;;19.48;15.80;;;7.10;99.90;;;;;;5017099;28;20037;-68
2021/05/03 06:39:24;;;;;;;17.88;15.98;;;7.10;99.90;;;;;;5020727;28;20128;-68
2021/05/03 06:41:50;;;;;;;20.40;16.98;;;7.20;99.90;;;;;;5016539;28;20033;-67
2021/05/03 06:44:16;;;;;;;17.73;15.80;;;7.30;99.90;;;;;;5019316;28;20052;-67
2021/05/03 06:46:42;;;;;;;18.38;16.45;;;7.30;99.90;;;;;;5023806;28;20041;-67
2021/05/03 06:49:09;;;;;;;17.15;15.25;;;7.30;99.90;;;;;;5011318;28;20046;-68
2021/05/03 06:51:35;;;;;;;20.83;17.88;;;7.40;99.90;;;;;;5008437;28;20053;-68
2021/05/03 06:54:00;;;;;;;20.45;17.50;;;7.50;99.90;;;;;;5008866;28;20912;-68
2021/05/03 06:56:26;;;;;;;19.25;16.45;;;7.50;99.90;;;;;;5013754;28;20037;-68
2021/05/03 06:58:52;;;;;;;19.67;17.48;;;7.70;99.90;;;;;;5004372;28;20041;-67
2021/05/03 07:01:22;;;;;;;18.95;16.95;;;7.90;99.90;;;;;;5009019;28;20052;-68
2021/05/03 07:03:48;;;;;;;19.55;17.52;;;8.20;99.90;;;;;;5012358;28;20131;-68
2021/05/03 07:06:14;;;;;;;21.60;18.33;;;8.30;99.90;;;;;;5013725;28;20083;-68
2021/05/03 07:08:41;;;;;;;22.77;18.40;;;8.50;99.90;;;;;;5021596;28;20045;-68
2021/05/03 07:11:16;;;;;;;20.60;18.50;;;8.70;99.90;;;;;;5017375;28;20129;-68
2021/05/03 07:13:42;;;;;;;22.45;19.20;;;8.70;99.60;;;;;;5019601;28;20049;-68
2021/05/03 07:16:08;;;;;;;21.95;18.20;;;8.80;99.60;;;;;;5021681;28;20607;-68
2021/05/03 07:18:34;;;;;;;22.83;19.42;;;8.80;99.10;;;;;;5021506;28;20140;-68
2021/05/03 07:21:00;;;;;;;22.55;19.13;;;8.70;99.30;;;;;;5016895;28;20045;-68
2021/05/03 07:23:26;;;;;;;22.75;19.83;;;8.80;99.60;;;;;;5021171;28;20094;-68
2021/05/03 07:25:52;;;;;;;23.15;20.67;;;8.80;99.70;;;;;;5018685;28;20080;-68
2021/05/03 07:28:18;;;;;;;23.27;20.88;;;8.90;99.70;;;;;;5020868;28;20427;-67
2021/05/03 07:30:44;;;;;;;23.63;21.23;;;9.10;99.10;;;;;;5016403;28;20037;-68
2021/05/03 07:33:10;;;;;;;23.23;20.52;;;9.30;99.50;;;;;;5027732;28;20056;-68
2021/05/03 07:35:35;;;;;;;23.85;20.92;;;9.60;99.30;;;;;;5021607;28;20040;-68
2021/05/03 07:38:01;;;;;;;22.48;20.15;;;9.90;98.70;;;;;;5019371;28;20053;-66
2021/05/03 07:40:27;;;;;;;24.48;20.83;;;10.00;98.30;;;;;;5017697;28;20111;-66
2021/05/03 07:42:53;;;;;;;24.73;22.10;;;10.00;97.90;;;;;;5018629;28;20049;-66
2021/05/03 07:45:19;;;;;;;24.13;21.48;;;10.00;97.50;;;;;;5018021;28;20037;-66
2021/05/03 07:47:45;;;;;;;23.48;21.05;;;10.00;97.50;;;;;;5023179;28;20037;-66
2021/05/03 07:50:13;;;;;;;26.30;23.63;;;10.00;97.30;;;;;;5019134;28;20045;-66
2021/05/03 07:52:39;;;;;;;24.33;22.00;;;10.00;97.40;;;;;;5021955;28;20030;-66
2021/05/03 07:55:07;;;;;;;26.88;23.55;;;10.00;97.30;;;;;;5021105;28;20056;-66
2021/05/03 07:57:33;;;;;;;25.63;23.10;;;10.10;97.80;;;;;;5022904;28;20029;-66
2021/05/03 07:59:59;;;;;;;26.30;23.17;;;10.10;97.70;;;;;;5024234;28;20037;-66
2021/05/03 08:02:25;;;;;;;25.48;22.88;;;10.10;97.90;;;;;;5017267;28;20383;-66
2021/05/03 08:04:52;;;;;;;24.58;21.65;;;10.00;97.80;;;;;;5020758;28;20038;-66
2021/05/03 08:07:18;;;;;;;24.77;22.23;;;10.10;97.90;;;;;;5020632;28;20048;-66
2021/05/03 08:09:44;;;;;;;24.27;21.73;;;10.10;98.20;;;;;;5020027;28;20869;-66
2021/05/03 08:12:10;;;;;;;23.67;21.17;;;10.30;98.10;;;;;;5017669;28;20160;-66
2021/05/03 08:14:37;;;;;;;26.25;21.88;;;10.50;97.90;;;;;;5020961;28;20395;-66
2021/05/03 08:17:09;;;;;;;25.35;22.73;;;10.70;97.30;;;;;;5020967;28;20128;-66
2021/05/03 08:19:35;;;;;;;24.30;21.67;;;10.90;96.90;;;;;;5020678;28;20044;-66
2021/05/03 08:22:02;;;;;;;24.38;21.77;;;11.20;97.20;;;;;;5018249;28;20033;-66
2021/05/03 08:24:29;;;;;;;28.40;23.92;;;11.50;96.40;;;;;;5020618;28;20038;-66
2021/05/03 08:26:57;;;;;;;25.85;22.40;;;11.60;96.00;;;;;;5019630;28;20127;-66
2021/05/03 08:29:23;;;;;;;25.55;22.85;;;11.60;95.40;;;;;;5022242;28;20745;-66
2021/05/03 08:31:49;;;;;;;26.65;24.15;;;11.60;95.60;;;;;;5019313;28;20130;-67
2021/05/03 08:34:15;;;;;;;28.80;24.20;;;11.60;95.50;;;;;;5020133;28;20045;-66
2021/05/03 08:36:41;;;;;;;25.90;23.13;;;11.40;95.10;;;;;;5017937;28;20076;-66
2021/05/03 08:39:07;;;;;;;25.80;23.15;;;11.40;95.60;;;;;;5022490;28;20045;-66
2021/05/03 08:41:34;;;;;;;28.50;25.42;;;11.20;95.20;;;;;;5016303;28;20041;-66
2021/05/03 08:44:00;;;;;;;33.97;25.48;;;11.10;95.60;;;;;;5021008;28;20145;-66
2021/05/03 08:46:28;;;;;;;29.02;25.65;;;11.00;95.50;;;;;;5021179;28;20492;-66
2021/05/03 08:49:03;;;;;;;29.33;26.27;;;11.00;96.00;;;;;;5018184;28;20041;-66
2021/05/03 08:51:33;;;;;;;34.20;27.90;;;11.00;96.30;;;;;;5016282;28;20490;-66
2021/05/03 08:54:42;;;;;;;33.00;26.33;;;11.00;96.80;;;;;;5018082;28;20045;-66
2021/05/03 08:56:48;;;;;;;28.30;25.40;;;11.10;96.60;;;;;;5015099;28;20052;-66
2021/05/03 08:59:15;;;;;;;31.10;27.67;;;11.10;96.50;;;;;;5021935;28;20136;-66
2021/05/03 09:01:49;;;;;;;29.65;26.52;;;11.20;96.30;;;;;;5020462;28;20503;-66
2021/05/03 09:04:16;;;;;;;31.23;28.02;;;11.40;96.50;;;;;;5023389;28;20046;-66
2021/05/03 09:07:04;;;;;;;29.67;26.60;;;11.70;96.30;;;;;;5021325;28;20029;-67
2021/05/03 09:09:41;;;;;;;30.92;27.38;;;12.00;95.70;;;;;;5021916;28;20104;-67
2021/05/03 09:12:26;;;;;;;33.50;29.98;;;12.20;94.70;;;;;;5014420;28;20117;-67
2021/05/03 09:14:58;;;;;;;30.17;27.27;;;12.40;94.90;;;;;;5020715;28;20659;-67
2021/05/03 09:17:29;;;;;;;31.33;27.95;;;12.40;94.40;;;;;;5022000;28;20364;-67
2021/05/03 09:19:57;;;;;;;33.40;29.88;;;12.30;93.80;;;;;;5018231;28;20049;-67
2021/05/03 09:22:29;;;;;;;33.67;28.13;;;12.20;93.90;;;;;;5018680;28;20110;-67
2021/05/03 09:25:18;;;;;;;30.83;27.73;;;12.10;94.50;;;;;;5020427;28;20416;-67
2021/05/03 09:27:48;;;;;;;40.95;28.90;;;11.90;94.50;;;;;;5025277;28;20042;-67
2021/05/03 09:30:44;;;;;;;35.15;29.88;;;11.70;94.70;;;;;;5024302;28;20041;-66
2021/05/03 09:33:15;;;;;;;33.92;30.45;;;11.70;95.00;;;;;;5026257;28;20056;-67
2021/05/03 09:35:52;;;;;;;33.42;29.70;;;11.50;95.00;;;;;;5024027;28;20128;-66
2021/05/03 09:38:43;;;;;;;33.75;30.48;;;11.40;95.00;;;;;;5023810;28;20502;-66
2021/05/03 09:41:24;;;;;;;35.20;31.38;;;11.30;95.00;;;;;;5019304;28;20514;-66
2021/05/03 09:44:07;;;;;;;35.20;30.52;;;11.30;95.40;;;;;;5022195;28;20046;-66
2021/05/03 09:46:43;;;;;;;47.45;32.58;;;11.40;95.20;;;;;;5023599;28;20119;-66
2021/05/03 09:49:20;;;;;;;36.28;30.90;;;11.50;95.60;;;;;;5021297;28;20553;-68
2021/05/03 09:51:59;;;;;;;37.00;29.55;;;11.70;95.60;;;;;;5021593;28;20483;-69
2021/05/03 09:54:27;;;;;;;34.13;30.70;;;11.70;94.90;;;;;;5023153;28;20069;-66
2021/05/03 09:57:10;;;;;;;32.50;29.27;;;11.70;95.40;;;;;;5021608;28;20049;-66
2021/05/03 09:59:48;;;;;;;35.53;31.67;;;11.60;95.10;;;;;;5025107;28;20038;-66
2021/05/03 10:04:55;;;;;;;31.35;28.23;;;11.60;94.80;;;;;;5025086;28;20510;-68
2021/05/03 10:07:24;;;;;;;34.72;29.23;;;11.70;94.90;;;;;;5026180;28;20037;-68
2021/05/03 10:09:56;;;;;;;28.90;25.80;;;11.80;94.80;;;;;;5025895;28;20037;-69
2021/05/03 10:12:22;;;;;;;32.75;28.20;;;12.10;94.10;;;;;;5036552;28;20033;-69
2021/05/03 10:14:48;;;;;;;35.50;31.70;;;12.30;93.90;;;;;;5021805;28;20095;-69
2021/05/03 10:17:16;;;;;;;29.90;25.45;;;12.40;94.10;;;;;;5023005;28;20500;-69
2021/05/03 10:19:43;;;;;;;31.13;27.30;;;12.50;93.90;;;;;;5023598;28;20041;-69
2021/05/03 10:22:17;;;;;;;35.60;27.27;;;12.80;93.30;;;;;;5022042;28;20104;-69
2021/05/03 10:24:49;;;;;;;34.03;27.35;;;12.90;93.10;;;;;;5021604;28;20041;-69
2021/05/03 10:27:17;;;;;;;31.60;27.67;;;13.00;93.50;;;;;;5019436;28;20048;-68
2021/05/03 10:29:44;;;;;;;31.38;25.27;;;13.00;92.80;;;;;;5022135;28;20109;-67
2021/05/03 10:32:21;;;;;;;30.77;25.73;;;12.90;92.30;;;;;;5021086;28;20374;-67
2021/05/03 10:34:53;;;;;;;28.55;25.58;;;12.80;92.40;;;;;;5020053;28;20041;-67
2021/05/03 10:37:34;;;;;;;30.90;27.33;;;12.70;92.20;;;;;;5025209;28;20041;-67
2021/05/03 10:40:23;;;;;;;30.90;27.80;;;12.60;92.80;;;;;;5023737;28;20041;-67
2021/05/03 10:43:11;;;;;;;30.90;27.60;;;12.50;92.80;;;;;;5015829;28;20057;-67
2021/05/03 10:45:52;;;;;;;30.85;26.05;;;12.50;93.60;;;;;;5024179;28;20139;-67
2021/05/03 10:49:37;;;;;;;25.58;22.92;;;12.40;93.20;;;;;;5022931;28;20053;-66
2021/05/03 10:54:20;;;;;;;29.67;26.50;;;12.30;93.30;;;;;;5024135;28;20056;-67
2021/05/03 10:56:47;;;;;;;30.50;27.23;;;12.50;93.60;;;;;;5024268;28;20030;-67
2021/05/03 10:59:15;;;;;;;30.67;27.45;;;12.50;93.40;;;;;;5024849;28;20038;-67
2021/05/03 11:01:57;;;;;;;31.15;26.38;;;12.40;93.20;;;;;;5021209;28;20140;-67
2021/05/03 11:04:24;;;;;;;36.63;19.35;;;12.40;93.50;;;;;;5022167;28;20037;-67
2021/05/03 11:06:49;;;;;;;25.30;22.60;;;12.20;91.00;;;;;;5023113;28;20630;-67
2021/05/03 11:09:28;;;;;;;25.70;23.02;;;12.00;91.80;;;;;;5021472;28;20075;-67
2021/05/03 11:12:22;;;;;;;27.05;24.25;;;12.00;92.70;;;;;;5022911;28;20072;-67
2021/05/03 11:15:12;;;;;;;25.42;22.77;;;12.40;93.30;;;;;;5020999;28;20058;-67
2021/05/03 11:18:15;;;;;;;30.48;25.95;;;13.00;93.40;;;;;;5021490;28;20095;-68
2021/05/03 11:21:18;;;;;;;24.25;20.58;;;13.60;92.90;;;;;;5019438;28;20049;-67
2021/05/03 11:23:45;;;;;;;29.67;24.98;;;13.90;91.50;;;;;;4962555;28;20047;-68
2021/05/03 11:26:34;;;;;;;24.92;22.30;;;14.10;91.50;;;;;;5012266;28;20045;-68
2021/05/03 11:29:12;;;;;;;25.50;22.85;;;14.20;90.80;;;;;;5025708;28;20041;-67
2021/05/03 11:31:39;;;;;;;24.13;18.65;;;14.10;90.10;;;;;;5019342;28;20769;-67
2021/05/03 11:34:16;;;;;;;18.65;16.65;;;14.00;88.50;;;;;;5024252;28;20042;-67
2021/05/03 11:36:48;;;;;;;22.15;16.90;;;14.30;88.50;;;;;;5024021;28;20487;-67
2021/05/03 11:39:41;;;;;;;19.70;16.88;;;14.60;84.60;;;;;;5024574;28;20389;-68
2021/05/03 11:42:36;;;;;;;23.38;21.23;;;14.70;85.20;;;;;;5020462;28;20055;-67
2021/05/03 11:44:58;;;;;;;25.35;22.63;;;14.60;86.00;;;;;;5018044;28;20038;-68
2021/05/03 11:47:31;;;;;;;18.33;16.48;;;14.30;87.10;;;;;;5021074;28;20033;-68
2021/05/03 11:49:58;;;;;;;30.95;19.27;;;14.10;87.10;;;;;;5023687;28;20041;-67
2021/05/03 11:52:32;;;;;;;20.98;18.38;;;14.00;85.80;;;;;;5020687;28;20076;-68
2021/05/03 11:55:10;;;;;;;26.17;13.63;;;14.00;86.30;;;;;;5022823;28;20041;-67
2021/05/03 11:57:48;;;;;;;23.40;11.15;;;13.60;82.90;;;;;;5022979;28;20053;-67
2021/05/03 12:00:19;;;;;;;10.13;7.82;;;13.20;82.40;;;;;;5018442;28;20052;-67
2021/05/03 12:02:45;;;;;;;13.65;6.80;;;12.70;83.20;;;;;;5020536;28;20045;-67
2021/05/03 12:05:17;;;;;;;8.85;7.60;;;12.20;82.30;;;;;;5019645;28;20056;-67
2021/05/03 12:07:43;;;;;;;8.30;6.47;;;12.00;86.90;;;;;;5018653;28;20037;-67
2021/05/03 12:10:17;;;;;;;17.77;6.45;;;11.90;90.00;;;;;;5021404;28;20045;-67
2021/05/03 12:12:53;;;;;;;8.48;5.18;;;12.10;90.10;;;;;;5018480;28;20163;-67
2021/05/03 12:15:27;;;;;;;6.88;5.68;;;12.20;88.30;;;;;;5021670;28;20041;-67
2021/05/03 12:17:54;;;;;;;9.40;4.88;;;12.20;89.40;;;;;;5023858;28;20045;-67
2021/05/03 12:20:25;;;;;;;5.45;4.15;;;12.00;88.50;;;;;;5018732;28;20399;-67
2021/05/03 12:23:07;;;;;;;5.50;4.75;;;11.90;88.50;;;;;;5021481;28;20041;-67
2021/05/03 12:25:42;;;;;;;6.55;4.43;;;11.70;90.10;;;;;;5020874;28;20045;-67
2021/05/03 12:28:19;;;;;;;5.45;4.97;;;11.60;90.50;;;;;;5021650;28;20045;-67
2021/05/03 12:30:47;;;;;;;7.22;5.68;;;11.50;88.10;;;;;;5017429;28;20111;-67
2021/05/03 12:33:18;;;;;;;6.80;5.80;;;11.40;91.10;;;;;;5020729;28;20044;-67
2021/05/03 12:35:45;;;;;;;7.18;4.53;;;11.40;91.80;;;;;;5020394;28;20037;-67
2021/05/03 12:38:15;;;;;;;6.28;3.85;;;11.30;90.80;;;;;;5021962;28;20033;-67
2021/05/03 12:40:41;;;;;;;5.25;3.70;;;11.30;90.10;;;;;;5019350;28;20029;-67
2021/05/03 12:43:08;;;;;;;5.93;3.63;;;11.40;90.40;;;;;;5021598;28;20049;-67
2021/05/03 12:51:06;;;;;;;6.53;3.75;;;11.90;90.40;;;;;;5017191;28;20068;-67
2021/05/03 12:53:48;;;;;;;7.45;2.90;;;12.00;89.60;;;;;;5018226;28;20403;-67
2021/05/03 12:56:20;;;;;;;6.20;3.33;;;12.10;88.20;;;;;;5020047;28;20035;-67
2021/05/03 13:30:00;;;;;;;4.28;3.55;;;11.30;95.20;;;;;;5015112;28;20045;-69
2021/05/03 13:32:30;;;;;;;5.03;4.55;;;11.70;93.90;;;;;;5017157;28;20438;-69
2021/05/03 13:34:58;;;;;;;4.55;4.15;;;11.90;93.70;;;;;;5020604;28;20096;-69
2021/05/03 13:37:24;;;;;;;5.28;4.25;;;12.10;92.00;;;;;;5021102;28;20045;-69
2021/05/03 13:39:50;;;;;;;4.95;4.15;;;12.30;92.10;;;;;;5021659;28;20034;-70
2021/05/03 13:42:19;;;;;;;5.60;4.43;;;12.40;91.20;;;;;;5014406;28;20040;-69
2021/05/03 13:44:45;;;;;;;6.00;4.18;;;12.60;90.50;;;;;;5018536;28;20160;-69
2021/05/03 13:47:12;;;;;;;7.28;5.07;;;12.80;90.20;;;;;;5022622;28;21001;-69
2021/05/03 13:49:38;;;;;;;5.47;4.95;;;13.00;89.70;;;;;;5019867;28;20132;-69